createdAt,value
2022-11-09T00:01:16.206Z,13.80
2022-11-09T00:04:03.153Z,13.70
2022-11-09T00:06:48.607Z,13.70
2022-11-09T00:09:34.222Z,13.70
2022-11-09T00:12:19.641Z,13.70
2022-11-09T00:15:05.570Z,13.80
2022-11-09T00:17:50.819Z,13.60
2022-11-09T00:20:36.427Z,13.60
2022-11-09T00:23:22.641Z,13.50
2022-11-09T00:26:09.727Z,13.60
2022-11-09T00:28:55.224Z,13.60
2022-11-09T00:31:40.693Z,13.60
2022-11-09T00:34:26.027Z,13.60
2022-11-09T00:37:11.709Z,13.70
2022-11-09T00:39:57.222Z,13.60
2022-11-09T00:42:42.743Z,13.50
2022-11-09T00:45:28.112Z,13.50
2022-11-09T00:48:13.533Z,13.40
2022-11-09T00:51:01.002Z,13.30
2022-11-09T00:53:48.284Z,13.30
2022-11-09T00:56:33.835Z,13.30
2022-11-09T00:59:19.529Z,13.30
2022-11-09T01:02:05.861Z,13.30
2022-11-09T01:04:52.848Z,13.40
2022-11-09T01:07:39.002Z,13.40
2022-11-09T01:10:24.096Z,13.40
2022-11-09T01:13:14.121Z,13.40
2022-11-09T01:16:06.694Z,13.40
2022-11-09T01:18:56.266Z,13.30
2022-11-09T01:21:42.868Z,13.30
2022-11-09T01:24:28.210Z,13.30
2022-11-09T01:27:14.324Z,13.40
2022-11-09T01:29:59.641Z,13.30
2022-11-09T01:32:45.030Z,13.40
2022-11-09T01:35:32.638Z,13.40
2022-11-09T01:38:17.688Z,13.40
2022-11-09T01:41:03.454Z,13.40
2022-11-09T01:44:11.198Z,13.30
2022-11-09T01:47:17.280Z,13.30
2022-11-09T01:50:03.021Z,13.30
2022-11-09T01:52:49.428Z,13.30
2022-11-09T01:55:34.549Z,13.30
2022-11-09T01:58:30.654Z,13.20
2022-11-09T02:01:17.859Z,13.20
2022-11-09T02:04:14.329Z,13.20
2022-11-09T02:07:00.513Z,13.30
2022-11-09T02:09:59.426Z,13.20
2022-11-09T02:12:45.660Z,13.30
2022-11-09T02:15:31.753Z,13.40
2022-11-09T02:18:17.894Z,13.40
2022-11-09T02:21:03.076Z,13.40
2022-11-09T02:23:49.077Z,13.40
2022-11-09T02:26:50.500Z,13.40
2022-11-09T02:29:40.586Z,15.30
2022-11-09T02:32:28.955Z,13.40
2022-11-09T02:35:16.117Z,13.40
2022-11-09T02:38:01.650Z,13.40
2022-11-09T02:40:51.330Z,13.40
2022-11-09T02:43:37.724Z,13.60
2022-11-09T02:46:36.014Z,13.60
2022-11-09T02:49:21.705Z,13.60
2022-11-09T02:52:07.163Z,13.60
2022-11-09T02:54:52.530Z,13.60
2022-11-09T02:57:37.830Z,13.60
2022-11-09T03:00:23.175Z,13.60
2022-11-09T03:03:09.102Z,13.50
2022-11-09T03:05:54.682Z,13.40
2022-11-09T03:08:40.143Z,13.40
2022-11-09T03:11:25.672Z,13.30
2022-11-09T03:14:11.364Z,13.30
2022-11-09T03:17:02.055Z,13.20
2022-11-09T03:19:47.369Z,13.20
2022-11-09T03:22:33.084Z,13.20
2022-11-09T03:25:19.351Z,13.30
2022-11-09T03:28:07.304Z,13.30
2022-11-09T03:30:53.209Z,13.30
2022-11-09T03:33:38.523Z,13.30
2022-11-09T03:36:24.153Z,13.30
2022-11-09T03:39:09.559Z,13.10
2022-11-09T03:41:55.981Z,13.10
2022-11-09T03:44:41.581Z,13.20
2022-11-09T03:47:26.989Z,13.10
2022-11-09T03:50:14.351Z,13.10
2022-11-09T03:53:00.218Z,13.10
2022-11-09T03:55:45.424Z,13.10
2022-11-09T03:58:30.983Z,13.10
2022-11-09T04:01:16.323Z,13.10
2022-11-09T04:04:01.689Z,13.00
2022-11-09T04:06:47.086Z,12.90
2022-11-09T04:09:32.351Z,12.90
2022-11-09T04:12:17.910Z,12.90
2022-11-09T04:15:03.400Z,12.90
2022-11-09T04:17:56.801Z,12.90
2022-11-09T04:20:42.686Z,12.90
2022-11-09T04:23:28.242Z,12.90
2022-11-09T04:26:13.744Z,12.90
2022-11-09T04:28:59.242Z,15.40
2022-11-09T04:31:44.538Z,12.90
2022-11-09T04:34:29.986Z,13.20
2022-11-09T04:37:15.490Z,13.20
2022-11-09T04:40:00.941Z,13.30
2022-11-09T04:42:46.340Z,13.30
2022-11-09T04:45:33.907Z,13.30
2022-11-09T04:48:19.277Z,13.40
2022-11-09T04:51:10.658Z,13.40
2022-11-09T04:53:56.491Z,13.40
2022-11-09T04:56:42.060Z,13.50
2022-11-09T04:59:27.663Z,13.50
2022-11-09T05:02:12.949Z,13.40
2022-11-09T05:04:58.423Z,13.40
2022-11-09T05:07:43.854Z,13.40
2022-11-09T05:10:29.292Z,13.30
2022-11-09T05:13:14.716Z,13.30
2022-11-09T05:16:01.208Z,13.20
2022-11-09T05:18:47.389Z,13.20
2022-11-09T05:21:32.602Z,13.10
2022-11-09T05:24:18.005Z,12.90
2022-11-09T05:27:04.953Z,12.90
2022-11-09T05:29:50.197Z,12.90
2022-11-09T05:32:39.036Z,12.90
2022-11-09T05:35:24.451Z,12.80
2022-11-09T05:38:09.633Z,12.90
2022-11-09T05:40:55.148Z,12.90
2022-11-09T05:43:41.181Z,12.90
2022-11-09T05:46:26.983Z,12.80
2022-11-09T05:49:11.951Z,12.80
2022-11-09T05:51:57.437Z,12.80
2022-11-09T05:54:42.856Z,12.90
2022-11-09T05:57:29.032Z,12.90
2022-11-09T06:00:15.047Z,13.00
2022-11-09T06:03:05.508Z,13.10
2022-11-09T06:05:50.840Z,13.20
2022-11-09T06:08:37.569Z,13.10
2022-11-09T06:11:24.515Z,13.20
2022-11-09T06:14:10.042Z,13.20
2022-11-09T06:16:55.535Z,13.10
2022-11-09T06:19:41.268Z,13.00
2022-11-09T06:22:26.627Z,13.00
2022-11-09T06:25:12.113Z,12.90
2022-11-09T06:27:58.268Z,12.90
2022-11-09T06:30:43.468Z,12.80
2022-11-09T06:33:33.840Z,12.80
2022-11-09T06:36:19.340Z,12.70
2022-11-09T06:39:04.473Z,12.70
2022-11-09T06:41:50.063Z,12.60
2022-11-09T06:44:35.524Z,12.60
2022-11-09T06:47:20.942Z,12.60
2022-11-09T06:50:06.912Z,12.60
2022-11-09T06:52:59.942Z,12.60
2022-11-09T06:55:50.128Z,12.60
2022-11-09T06:58:36.644Z,12.60
2022-11-09T07:01:26.136Z,12.60
2022-11-09T07:04:14.206Z,12.70
2022-11-09T07:07:00.347Z,12.70
2022-11-09T07:09:45.811Z,12.70
2022-11-09T07:12:32.546Z,12.80
2022-11-09T07:15:18.520Z,12.90
2022-11-09T07:18:06.641Z,12.90
2022-11-09T07:20:51.888Z,13.00
2022-11-09T07:23:37.206Z,13.00
2022-11-09T07:26:22.790Z,13.10
2022-11-09T07:29:08.298Z,13.10
2022-11-09T07:31:53.572Z,13.20
2022-11-09T07:34:39.057Z,13.30
2022-11-09T07:37:24.491Z,13.30
2022-11-09T07:40:10.486Z,13.30
2022-11-09T07:43:04.004Z,13.30
2022-11-09T07:45:49.578Z,13.40
2022-11-09T07:48:35.106Z,13.50
2022-11-09T07:51:20.756Z,13.50
2022-11-09T07:54:06.623Z,13.50
2022-11-09T07:56:51.794Z,13.50
2022-11-09T07:59:37.381Z,13.60
2022-11-09T08:02:22.540Z,13.70
2022-11-09T08:05:08.073Z,13.80
2022-11-09T08:08:02.059Z,13.90
2022-11-09T08:10:52.848Z,13.90
2022-11-09T08:13:38.220Z,13.90
2022-11-09T08:16:23.967Z,13.90
2022-11-09T08:19:10.365Z,13.90
2022-11-09T08:21:57.740Z,13.90
2022-11-09T08:24:43.157Z,13.90
2022-11-09T08:27:30.509Z,13.80
2022-11-09T08:30:18.945Z,13.80
2022-11-09T08:33:04.988Z,13.80
2022-11-09T08:35:53.143Z,13.70
2022-11-09T08:38:39.400Z,13.70
2022-11-09T08:41:24.482Z,13.70
2022-11-09T08:44:09.933Z,13.60
2022-11-09T08:58:02.014Z,13.70
2022-11-09T09:00:47.477Z,13.70
2022-11-09T09:03:32.519Z,13.60
2022-11-09T09:14:36.483Z,13.30
2022-11-09T09:17:21.552Z,13.30
2022-11-09T09:20:07.702Z,13.30
2022-11-09T09:25:38.763Z,13.30
2022-11-09T09:31:15.648Z,13.20
2022-11-09T09:34:03.957Z,13.30
2022-11-09T09:42:28.446Z,13.60
2022-11-09T09:45:19.487Z,13.50
2022-11-09T09:48:29.900Z,13.60
2022-11-09T09:51:23.295Z,13.50
2022-11-09T09:54:28.559Z,13.40
2022-11-09T09:57:19.038Z,13.40
2022-11-09T10:00:07.689Z,11.80
2022-11-09T10:05:58.366Z,13.30
2022-11-09T10:12:01.465Z,13.10
2022-11-09T10:15:02.186Z,13.30
2022-11-09T10:18:25.320Z,13.30
2022-11-09T10:21:35.263Z,13.50
2022-11-09T10:24:58.733Z,13.50
2022-11-09T10:28:00.933Z,13.60
2022-11-09T10:30:46.590Z,13.60
2022-11-09T10:36:42.262Z,13.50
2022-11-09T10:39:34.972Z,13.40
2022-11-09T10:45:45.690Z,13.50
2022-11-09T10:55:29.009Z,13.60
2022-11-09T10:58:37.212Z,13.90
2022-11-09T11:07:51.656Z,14.00
2022-11-09T11:11:32.545Z,13.80
2022-11-09T11:14:42.683Z,13.90
2022-11-09T11:21:07.929Z,13.80
2022-11-09T11:24:18.167Z,14.00
2022-11-09T11:27:43.897Z,14.00
2022-11-09T11:37:22.191Z,14.00
2022-11-09T11:40:34.654Z,14.10
2022-11-09T11:43:50.311Z,15.20
2022-11-09T11:46:54.389Z,14.10
2022-11-09T11:50:23.123Z,14.40
2022-11-09T11:54:03.706Z,14.20
2022-11-09T11:57:13.936Z,14.30
2022-11-09T12:00:22.262Z,14.40
2022-11-09T12:03:50.396Z,14.60
2022-11-09T12:07:20.731Z,14.80
2022-11-09T12:10:51.671Z,14.90
2022-11-09T12:14:05.072Z,15.00
2022-11-09T12:17:53.304Z,15.10
2022-11-09T12:21:15.596Z,15.10
2022-11-09T12:27:42.108Z,15.10
2022-11-09T12:31:24.798Z,15.30
2022-11-09T12:34:47.633Z,15.50
2022-11-09T12:38:14.308Z,15.70
2022-11-09T12:41:22.349Z,15.70
2022-11-09T12:44:39.980Z,15.70
2022-11-09T12:47:45.507Z,15.70
2022-11-09T12:50:51.252Z,15.70
2022-11-09T12:53:57.747Z,15.50
2022-11-09T12:57:09.131Z,15.50
2022-11-09T13:00:44.545Z,15.60
2022-11-09T13:03:55.096Z,15.70
2022-11-09T13:07:09.159Z,15.80
2022-11-09T13:10:37.621Z,15.80
2022-11-09T13:13:42.000Z,15.90
2022-11-09T13:16:46.526Z,16.00
2022-11-09T13:19:55.332Z,16.00
2022-11-09T13:23:02.016Z,15.70
2022-11-09T13:26:33.457Z,15.70
2022-11-09T13:29:41.061Z,15.80
2022-11-09T13:33:05.453Z,15.90
2022-11-09T13:39:32.476Z,15.90
2022-11-09T13:45:46.726Z,15.90
2022-11-09T13:48:53.998Z,15.90
2022-11-09T13:58:29.097Z,15.70
2022-11-09T14:01:55.907Z,15.60
2022-11-09T14:11:35.713Z,15.50
2022-11-09T14:14:51.347Z,15.50
2022-11-09T14:18:16.236Z,15.50
2022-11-09T14:21:51.952Z,15.50
2022-11-09T14:28:01.541Z,15.50
2022-11-09T14:34:16.594Z,15.50
2022-11-09T14:37:21.804Z,15.40
2022-11-09T14:40:28.223Z,15.30
2022-11-09T14:43:45.368Z,15.30
2022-11-09T14:46:53.709Z,15.20
2022-11-09T14:49:59.116Z,15.10
2022-11-09T14:53:05.677Z,15.10
2022-11-09T14:56:12.662Z,15.30
2022-11-09T14:59:21.305Z,15.20
2022-11-09T15:05:40.640Z,15.00
2022-11-09T15:09:08.600Z,15.00
2022-11-09T15:12:20.857Z,15.00
2022-11-09T15:15:28.029Z,14.90
2022-11-09T15:18:35.213Z,14.90
2022-11-09T15:21:39.686Z,14.70
2022-11-09T15:24:48.414Z,14.80
2022-11-09T15:28:21.506Z,14.50
2022-11-09T15:31:28.317Z,14.60
2022-11-09T15:34:37.990Z,14.50
2022-11-09T15:37:51.326Z,14.40
2022-11-09T15:40:55.616Z,14.40
2022-11-09T15:43:59.759Z,14.40
2022-11-09T15:50:18.119Z,14.40
2022-11-09T15:53:23.324Z,14.40
2022-11-09T16:08:48.627Z,12.30
2022-11-09T16:11:53.093Z,14.30
2022-11-09T16:18:03.561Z,14.40
2022-11-09T16:21:15.942Z,14.30
2022-11-09T16:24:21.094Z,14.20
2022-11-09T16:27:48.930Z,14.20
2022-11-09T16:30:50.430Z,14.20
2022-11-09T16:33:54.728Z,14.20
2022-11-09T16:36:59.321Z,14.30
2022-11-09T16:40:13.188Z,14.30
2022-11-09T16:46:26.098Z,14.30
2022-11-09T16:49:31.870Z,14.40
2022-11-09T16:52:35.951Z,14.30
2022-11-09T16:58:45.522Z,14.20
2022-11-09T17:01:54.759Z,14.10
2022-11-09T17:04:58.919Z,14.00
2022-11-09T17:11:13.045Z,14.20
2022-11-09T17:20:27.128Z,14.00
2022-11-09T17:29:42.922Z,14.10
2022-11-09T17:36:03.855Z,14.10
2022-11-09T17:45:17.991Z,14.00
2022-11-09T18:16:17.948Z,13.70
2022-11-09T18:28:38.781Z,13.70
2022-11-09T18:31:43.033Z,13.60
2022-11-09T18:41:10.480Z,13.60
2022-11-09T18:53:40.786Z,13.50
2022-11-09T18:56:46.126Z,13.60
2022-11-09T19:06:08.088Z,13.50
2022-11-09T19:09:29.417Z,13.50
2022-11-09T19:12:33.962Z,13.40
2022-11-09T19:15:43.691Z,13.40
2022-11-09T19:21:56.903Z,13.40
2022-11-09T19:31:19.068Z,13.30
2022-11-09T19:49:53.889Z,13.20
2022-11-09T19:56:04.661Z,13.30
2022-11-09T19:59:13.346Z,13.40
2022-11-09T20:52:00.793Z,13.10
2022-11-09T20:58:13.885Z,13.00
2022-11-09T21:01:20.410Z,13.00
2022-11-09T21:10:35.444Z,13.00
2022-11-09T21:13:41.649Z,12.90
2022-11-09T21:36:13.227Z,12.90
2022-11-09T21:48:31.976Z,12.80
2022-11-09T21:51:38.053Z,12.80
2022-11-09T21:57:49.991Z,12.80
2022-11-09T22:07:04.251Z,12.60
2022-11-09T22:13:35.079Z,12.60
2022-11-09T22:20:02.759Z,12.60
2022-11-09T22:23:08.161Z,12.50
2022-11-09T22:32:21.979Z,12.30
2022-11-09T22:38:32.933Z,12.30
2022-11-09T23:00:10.686Z,12.40
2022-11-09T23:06:21.815Z,12.30
2022-11-09T23:12:33.612Z,12.40
2022-11-09T23:18:55.423Z,12.40
2022-11-09T23:43:55.931Z,12.40
2022-11-09T23:50:05.536Z,12.30
